Yogi Berra — WDF2990 — position and weather

sailwx.info

Track history (hours):
 
Tides and Currents Weather Stations Pressure Air Temp Water Temp Dewpoint Dewpoint Depression Visibility Wind Speed Wind Dir Waves Ship Positions

Yogi Berra

Owner: PORT IMPERIAL FERRY, WEEHAWKEN, NJ. More information available from US FCC via Universal Licensing System and Coast Guard Vessel Documentation Center.

Last reported at 2018-May-22 13:04 UTC. Time now 2018-May-22 19:38 UTC.
Position N 40°47' W 074°01'.

Length 25 m; draft 2 m.

Type: Passenger vessel. MMSI: 367434220.

Date/timePositionNaut miles runAvg speedWind from/ knotsBaromVisibWave heightAir tempDewpointWater temp
2018-May-22 13:04N 40°47' W 074°01'0 7.4
2018-May-22 13:00N 40°46' W 074°00'1 2.4
2018-May-22 12:30N 40°45' W 074°01'5 9.9
2018-May-22 11:59N 40°50' W 073°58'4 8.0
2018-May-22 11:30N 40°46' W 074°01'0 0.0
2018-May-21 22:35N 40°46' W 074°01'0 1.9
2018-May-21 22:28N 40°46' W 074°00'1 2.8
2018-May-21 21:59N 40°45' W 074°01'2 4.5
2018-May-21 21:31N 40°43' W 074°01'3 6.3
2018-May-21 20:58N 40°46' W 074°01'0 0.0
2018-May-21 20:27N 40°46' W 074°01'0 0.0
2018-May-21 14:17N 40°46' W 074°01'2 8.2
2018-May-21 14:00N 40°44' W 074°02'2 3.1
2018-May-21 13:27N 40°46' W 074°00'2 3.8
2018-May-21 13:00N 40°44' W 074°02'2 3.2
2018-May-21 12:28N 40°46' W 074°00'2 3.8
2018-May-21 12:00N 40°44' W 074°02'2 3.1
2018-May-21 11:28N 40°46' W 074°00'2 3.8
2018-May-21 11:00N 40°44' W 074°02'  
2018-May-18 22:23N 40°47' W 074°01'2 5.9
2018-May-18 22:00N 40°44' W 074°01'1 2.8
2018-May-18 21:30N 40°43' W 074°01'2 4.5
2018-May-18 21:00N 40°45' W 074°01'1 0.2
2018-May-18 14:24N 40°46' W 074°00'511.4
2018-May-18 14:01N 40°42' W 074°01'0 0.4
2018-May-18 13:31N 40°42' W 074°01'4 7.5
2018-May-18 13:01N 40°46' W 074°01'1 2.8
2018-May-18 12:30N 40°44' W 074°01'2 4.5
2018-May-18 12:00N 40°42' W 074°00'4 8.1
2018-May-18 11:30N 40°46' W 074°01'0 0.0
2018-May-18 11:00N 40°46' W 074°01'0 0.0
2018-May-17 12:33N 40°46' W 074°01'0 0.0
2018-May-17 12:30N 40°46' W 074°01'3 4.0
2018-May-17 11:46N 40°49' W 073°59'3 0.2
2018-May-16 22:41N 40°46' W 074°00'1 2.4
2018-May-16 22:26N 40°46' W 074°01'1 0.8
2018-May-16 21:47N 40°46' W 074°00'311.7
2018-May-16 21:30N 40°43' W 074°01'3 0.4
2018-May-16 13:35N 40°46' W 074°00'0 0.6
2018-May-16 13:16N 40°46' W 074°01'0 0.2
2018-May-16 13:00N 40°46' W 074°01'1 2.3
2018-May-16 12:30N 40°45' W 074°01'5 6.9
2018-May-16 11:50N 40°49' W 073°58'5 0.4
2018-May-15 23:32N 40°45' W 074°01'123.8
2018-May-15 23:31N 40°45' W 074°01'1 1.4
2018-May-15 22:56N 40°45' W 074°01'1 3.4
2018-May-15 22:31N 40°44' W 074°02'2 2.7
2018-May-15 21:56N 40°45' W 074°01'2 3.5
2018-May-15 21:31N 40°44' W 074°02'2 3.2
2018-May-15 20:58N 40°46' W 074°00'2 3.8
2018-May-15 20:30N 40°44' W 074°02'2 3.2
2018-May-15 19:56N 40°46' W 074°00'1 0.1
2018-May-15 13:26N 40°46' W 074°00'0 0.2
2018-May-15 12:58N 40°47' W 074°01'0 0.1
2018-May-15 12:30N 40°47' W 074°01'3 3.2
2018-May-15 11:38N 40°49' W 073°59'2 8.8
2018-May-15 11:22N 40°47' W 074°00'0 0.0
2018-May-14 12:58N 40°47' W 074°01'0 0.0
2018-May-14 12:26N 40°47' W 074°01'1 2.1
2018-May-14 11:44N 40°48' W 073°59'2 7.4
2018-May-14 11:30N 40°46' W 074°01'0 0.0
2018-May-14 11:00N 40°46' W 074°01'  
Track history (hours):
 
Tides and Currents Weather Stations Pressure Air Temp Water Temp Dewpoint Dewpoint Depression Visibility Wind Speed Wind Dir Waves Ship Positions

Yogi Berra

Owner: PORT IMPERIAL FERRY, WEEHAWKEN, NJ. More information available from US FCC via Universal Licensing System and Coast Guard Vessel Documentation Center.

Last reported at 2018-May-22 13:04 UTC. Time now 2018-May-22 19:38 UTC.
Position N 40°47' W 074°01'.

Length 25 m; draft 2 m.

Type: Passenger vessel. MMSI: 367434220.

Date/timePositionNaut miles runAvg speedWind from/ knotsBaromVisibWave heightAir tempDewpointWater temp
2018-May-22 13:04N 40°47' W 074°01'0 7.4
2018-May-22 13:00N 40°46' W 074°00'1 2.4
2018-May-22 12:30N 40°45' W 074°01'5 9.9
2018-May-22 11:59N 40°50' W 073°58'4 8.0
2018-May-22 11:30N 40°46' W 074°01'0 0.0
2018-May-21 22:35N 40°46' W 074°01'0 1.9
2018-May-21 22:28N 40°46' W 074°00'1 2.8
2018-May-21 21:59N 40°45' W 074°01'2 4.5
2018-May-21 21:31N 40°43' W 074°01'3 6.3
2018-May-21 20:58N 40°46' W 074°01'0 0.0
2018-May-21 20:27N 40°46' W 074°01'0 0.0
2018-May-21 14:17N 40°46' W 074°01'2 8.2
2018-May-21 14:00N 40°44' W 074°02'2 3.1
2018-May-21 13:27N 40°46' W 074°00'2 3.8
2018-May-21 13:00N 40°44' W 074°02'2 3.2
2018-May-21 12:28N 40°46' W 074°00'2 3.8
2018-May-21 12:00N 40°44' W 074°02'2 3.1
2018-May-21 11:28N 40°46' W 074°00'2 3.8
2018-May-21 11:00N 40°44' W 074°02'  
2018-May-18 22:23N 40°47' W 074°01'2 5.9
2018-May-18 22:00N 40°44' W 074°01'1 2.8
2018-May-18 21:30N 40°43' W 074°01'2 4.5
2018-May-18 21:00N 40°45' W 074°01'1 0.2
2018-May-18 14:24N 40°46' W 074°00'511.4
2018-May-18 14:01N 40°42' W 074°01'0 0.4
2018-May-18 13:31N 40°42' W 074°01'4 7.5
2018-May-18 13:01N 40°46' W 074°01'1 2.8
2018-May-18 12:30N 40°44' W 074°01'2 4.5
2018-May-18 12:00N 40°42' W 074°00'4 8.1
2018-May-18 11:30N 40°46' W 074°01'0 0.0
2018-May-18 11:00N 40°46' W 074°01'0 0.0
2018-May-17 12:33N 40°46' W 074°01'0 0.0
2018-May-17 12:30N 40°46' W 074°01'3 4.0
2018-May-17 11:46N 40°49' W 073°59'3 0.2
2018-May-16 22:41N 40°46' W 074°00'1 2.4
2018-May-16 22:26N 40°46' W 074°01'1 0.8
2018-May-16 21:47N 40°46' W 074°00'311.7
2018-May-16 21:30N 40°43' W 074°01'3 0.4
2018-May-16 13:35N 40°46' W 074°00'0 0.6
2018-May-16 13:16N 40°46' W 074°01'0 0.2
2018-May-16 13:00N 40°46' W 074°01'1 2.3
2018-May-16 12:30N 40°45' W 074°01'5 6.9
2018-May-16 11:50N 40°49' W 073°58'5 0.4
2018-May-15 23:32N 40°45' W 074°01'123.8
2018-May-15 23:31N 40°45' W 074°01'1 1.4
2018-May-15 22:56N 40°45' W 074°01'1 3.4
2018-May-15 22:31N 40°44' W 074°02'2 2.7
2018-May-15 21:56N 40°45' W 074°01'2 3.5
2018-May-15 21:31N 40°44' W 074°02'2 3.2
2018-May-15 20:58N 40°46' W 074°00'2 3.8
2018-May-15 20:30N 40°44' W 074°02'2 3.2
2018-May-15 19:56N 40°46' W 074°00'1 0.1
2018-May-15 13:26N 40°46' W 074°00'0 0.2
2018-May-15 12:58N 40°47' W 074°01'0 0.1
2018-May-15 12:30N 40°47' W 074°01'3 3.2
2018-May-15 11:38N 40°49' W 073°59'2 8.8
2018-May-15 11:22N 40°47' W 074°00'0 0.0
2018-May-14 12:58N 40°47' W 074°01'0 0.0
2018-May-14 12:26N 40°47' W 074°01'1 2.1
2018-May-14 11:44N 40°48' W 073°59'2 7.4
2018-May-14 11:30N 40°46' W 074°01'0 0.0
2018-May-14 11:00N 40°46' W 074°01'  

Dump ship's entire track history